sensor_id;sensor_type;location;lat;lon;timestamp;pressure;altitude;pressure_sealevel;temperature;humidity
73171;BME280;61381;50.118;19.962;2023-10-19T00:00:06;97867.16;;;5.97;100.00
73171;BME280;61381;50.118;19.962;2023-10-19T00:05:28;97850.16;;;5.82;100.00
73171;BME280;61381;50.118;19.962;2023-10-19T00:10:30;97853.59;;;5.93;100.00
73171;BME280;61381;50.118;19.962;2023-10-19T00:15:31;97852.19;;;6.27;98.52
73171;BME280;61381;50.118;19.962;2023-10-19T00:20:32;97843.25;;;5.81;99.43
73171;BME280;61381;50.118;19.962;2023-10-19T00:25:34;97839.78;;;5.86;99.68
73171;BME280;61381;50.118;19.962;2023-10-19T00:30:35;97839.31;;;5.53;100.00
73171;BME280;61381;50.118;19.962;2023-10-19T00:35:36;97822.06;;;5.45;100.00
73171;BME280;61381;50.118;19.962;2023-10-19T00:40:38;97826.00;;;5.68;100.00
73171;BME280;61381;50.118;19.962;2023-10-19T00:45:39;97819.38;;;5.61;99.63
73171;BME280;61381;50.118;19.962;2023-10-19T00:50:40;97820.44;;;5.18;100.00
73171;BME280;61381;50.118;19.962;2023-10-19T00:55:43;97802.66;;;5.29;100.00
73171;BME280;61381;50.118;19.962;2023-10-19T01:00:44;97785.94;;;5.08;100.00
73171;BME280;61381;50.118;19.962;2023-10-19T01:05:45;97784.88;;;5.45;100.00
73171;BME280;61381;50.118;19.962;2023-10-19T01:10:47;97776.34;;;5.43;100.00
73171;BME280;61381;50.118;19.962;2023-10-19T01:15:48;97772.38;;;5.46;100.00
73171;BME280;61381;50.118;19.962;2023-10-19T01:20:49;97758.03;;;5.47;100.00
73171;BME280;61381;50.118;19.962;2023-10-19T01:25:53;97747.91;;;5.54;100.00
73171;BME280;61381;50.118;19.962;2023-10-19T01:30:54;97754.50;;;5.72;100.00
73171;BME280;61381;50.118;19.962;2023-10-19T01:35:55;97744.97;;;5.56;100.00
73171;BME280;61381;50.118;19.962;2023-10-19T01:40:57;97727.72;;;5.53;100.00
73171;BME280;61381;50.118;19.962;2023-10-19T01:45:59;97729.53;;;5.73;100.00
73171;BME280;61381;50.118;19.962;2023-10-19T01:51:03;97719.44;;;5.65;100.00
73171;BME280;61381;50.118;19.962;2023-10-19T01:56:06;97716.50;;;5.77;100.00
73171;BME280;61381;50.118;19.962;2023-10-19T02:01:08;97709.13;;;5.48;100.00
73171;BME280;61381;50.118;19.962;2023-10-19T02:06:09;97693.44;;;5.57;100.00
73171;BME280;61381;50.118;19.962;2023-10-19T02:11:12;97689.69;;;5.63;99.23
73171;BME280;61381;50.118;19.962;2023-10-19T02:16:13;97676.19;;;5.59;100.00
73171;BME280;61381;50.118;19.962;2023-10-19T02:21:14;97677.53;;;5.51;98.21
73171;BME280;61381;50.118;19.962;2023-10-19T02:26:17;97672.59;;;4.98;100.00
73171;BME280;61381;50.118;19.962;2023-10-19T02:31:19;97674.22;;;4.99;100.00
73171;BME280;61381;50.118;19.962;2023-10-19T02:36:20;97664.34;;;5.15;100.00
73171;BME280;61381;50.118;19.962;2023-10-19T02:41:22;97665.91;;;5.22;100.00
73171;BME280;61381;50.118;19.962;2023-10-19T02:46:23;97658.53;;;5.13;100.00
73171;BME280;61381;50.118;19.962;2023-10-19T02:51:24;97630.34;;;5.17;100.00
73171;BME280;61381;50.118;19.962;2023-10-19T02:56:26;97638.09;;;5.04;100.00
73171;BME280;61381;50.118;19.962;2023-10-19T03:01:27;97629.09;;;4.99;100.00
73171;BME280;61381;50.118;19.962;2023-10-19T03:06:29;97621.66;;;4.96;100.00
73171;BME280;61381;50.118;19.962;2023-10-19T03:11:32;97609.75;;;4.89;100.00
73171;BME280;61381;50.118;19.962;2023-10-19T03:16:32;97613.22;;;4.63;100.00
73171;BME280;61381;50.118;19.962;2023-10-19T03:21:33;97606.31;;;4.78;97.17
73171;BME280;61381;50.118;19.962;2023-10-19T03:26:36;97599.41;;;4.56;99.70
73171;BME280;61381;50.118;19.962;2023-10-19T03:31:37;97591.25;;;4.32;99.71
73171;BME280;61381;50.118;19.962;2023-10-19T03:36:37;97577.97;;;4.32;100.00
73171;BME280;61381;50.118;19.962;2023-10-19T03:41:41;97569.72;;;4.64;100.00
73171;BME280;61381;50.118;19.962;2023-10-19T03:46:42;97558.06;;;4.66;100.00
73171;BME280;61381;50.118;19.962;2023-10-19T03:51:42;97559.91;;;4.70;100.00
73171;BME280;61381;50.118;19.962;2023-10-19T03:56:45;97533.66;;;4.58;100.00
73171;BME280;61381;50.118;19.962;2023-10-19T04:01:45;97520.34;;;4.84;100.00
73171;BME280;61381;50.118;19.962;2023-10-19T04:06:46;97516.72;;;5.14;100.00
73171;BME280;61381;50.118;19.962;2023-10-19T04:11:48;97507.41;;;5.22;100.00
73171;BME280;61381;50.118;19.962;2023-10-19T04:16:49;97503.69;;;5.23;100.00
73171;BME280;61381;50.118;19.962;2023-10-19T04:21:50;97502.44;;;5.10;100.00
73171;BME280;61381;50.118;19.962;2023-10-19T04:26:52;97493.03;;;5.33;100.00
73171;BME280;61381;50.118;19.962;2023-10-19T04:31:53;97491.78;;;5.60;100.00
73171;BME280;61381;50.118;19.962;2023-10-19T04:36:54;97479.59;;;5.59;100.00
73171;BME280;61381;50.118;19.962;2023-10-19T04:41:56;97473.19;;;5.60;100.00
73171;BME280;61381;50.118;19.962;2023-10-19T04:46:57;97486.50;;;5.89;100.00
73171;BME280;61381;50.118;19.962;2023-10-19T04:51:58;97490.56;;;6.46;100.00
73171;BME280;61381;50.118;19.962;2023-10-19T04:57:00;97483.16;;;6.67;99.61
73171;BME280;61381;50.118;19.962;2023-10-19T05:02:01;97478.97;;;6.85;99.16
73171;BME280;61381;50.118;19.962;2023-10-19T05:07:02;97469.16;;;6.32;100.00
73171;BME280;61381;50.118;19.962;2023-10-19T05:12:04;97479.09;;;6.21;100.00
73171;BME280;61381;50.118;19.962;2023-10-19T05:17:05;97483.50;;;6.36;100.00
73171;BME280;61381;50.118;19.962;2023-10-19T05:22:08;97473.28;;;6.43;100.00
73171;BME280;61381;50.118;19.962;2023-10-19T05:27:10;97479.72;;;6.37;100.00
73171;BME280;61381;50.118;19.962;2023-10-19T05:32:12;97476.09;;;6.28;100.00
73171;BME280;61381;50.118;19.962;2023-10-19T05:37:13;97481.19;;;6.96;100.00
73171;BME280;61381;50.118;19.962;2023-10-19T05:42:15;97477.13;;;7.23;98.15
73171;BME280;61381;50.118;19.962;2023-10-19T05:47:16;97467.56;;;6.79;98.18
73171;BME280;61381;50.118;19.962;2023-10-19T05:52:17;97462.44;;;6.88;98.69
73171;BME280;61381;50.118;19.962;2023-10-19T05:57:19;97446.00;;;6.56;99.29
73171;BME280;61381;50.118;19.962;2023-10-19T06:02:20;97448.75;;;6.51;99.83
73171;BME280;61381;50.118;19.962;2023-10-19T06:07:21;97442.06;;;6.97;97.64
73171;BME280;61381;50.118;19.962;2023-10-19T06:12:23;97446.69;;;7.29;95.63
73171;BME280;61381;50.118;19.962;2023-10-19T06:17:24;97445.59;;;7.11;94.56
73171;BME280;61381;50.118;19.962;2023-10-19T06:22:25;97444.59;;;7.26;94.76
73171;BME280;61381;50.118;19.962;2023-10-19T06:27:27;97448.47;;;7.15;94.89
73171;BME280;61381;50.118;19.962;2023-10-19T06:32:27;97438.22;;;6.84;95.26
73171;BME280;61381;50.118;19.962;2023-10-19T06:37:28;97426.75;;;7.08;95.34
73171;BME280;61381;50.118;19.962;2023-10-19T06:42:30;97413.41;;;7.27;94.26
73171;BME280;61381;50.118;19.962;2023-10-19T06:47:31;97394.81;;;7.41;95.17
73171;BME280;61381;50.118;19.962;2023-10-19T06:52:32;97403.19;;;8.00;92.21
73171;BME280;61381;50.118;19.962;2023-10-19T06:57:34;97409.63;;;9.19;87.74
73171;BME280;61381;50.118;19.962;2023-10-19T07:02:35;97387.75;;;9.53;84.55
73171;BME280;61381;50.118;19.962;2023-10-19T07:07:36;97385.72;;;9.14;85.59
73171;BME280;61381;50.118;19.962;2023-10-19T07:12:40;97362.78;;;9.35;85.13
73171;BME280;61381;50.118;19.962;2023-10-19T07:17:42;97355.78;;;9.03;85.79
73171;BME280;61381;50.118;19.962;2023-10-19T07:22:43;97355.66;;;9.08;86.31
73171;BME280;61381;50.118;19.962;2023-10-19T07:27:45;97357.63;;;9.70;83.51
73171;BME280;61381;50.118;19.962;2023-10-19T07:32:47;97361.78;;;10.57;81.28
73171;BME280;61381;50.118;19.962;2023-10-19T07:37:48;97356.63;;;11.39;76.59
73171;BME280;61381;50.118;19.962;2023-10-19T07:42:51;97347.50;;;11.14;76.62
73171;BME280;61381;50.118;19.962;2023-10-19T07:47:51;97338.56;;;10.34;79.82
73171;BME280;61381;50.118;19.962;2023-10-19T07:52:53;97341.84;;;10.31;78.53
73171;BME280;61381;50.118;19.962;2023-10-19T07:57:55;97334.97;;;10.39;80.66
73171;BME280;61381;50.118;19.962;2023-10-19T08:02:56;97334.56;;;10.72;78.99
73171;BME280;61381;50.118;19.962;2023-10-19T08:07:57;97324.16;;;10.79;76.78
73171;BME280;61381;50.118;19.962;2023-10-19T08:12:59;97330.00;;;10.99;76.83
73171;BME280;61381;50.118;19.962;2023-10-19T08:18:00;97315.53;;;11.65;74.85
73171;BME280;61381;50.118;19.962;2023-10-19T08:23:01;97302.38;;;11.81;74.94
73171;BME280;61381;50.118;19.962;2023-10-19T08:28:04;97296.06;;;11.94;74.29
73171;BME280;61381;50.118;19.962;2023-10-19T08:33:05;97290.06;;;12.27;74.56
73171;BME280;61381;50.118;19.962;2023-10-19T08:38:06;97282.94;;;12.52;72.99
73171;BME280;61381;50.118;19.962;2023-10-19T08:43:08;97273.56;;;13.00;68.98
73171;BME280;61381;50.118;19.962;2023-10-19T08:48:09;97270.16;;;13.58;66.98
73171;BME280;61381;50.118;19.962;2023-10-19T08:53:10;97279.16;;;13.87;64.66
73171;BME280;61381;50.118;19.962;2023-10-19T08:58:13;97271.41;;;13.73;64.93
73171;BME280;61381;50.118;19.962;2023-10-19T09:03:13;97263.22;;;13.24;65.45
73171;BME280;61381;50.118;19.962;2023-10-19T09:08:15;97250.59;;;13.03;67.61
73171;BME280;61381;50.118;19.962;2023-10-19T09:13:18;97266.69;;;13.70;64.66
73171;BME280;61381;50.118;19.962;2023-10-19T09:18:20;97247.75;;;13.66;66.33
73171;BME280;61381;50.118;19.962;2023-10-19T09:23:21;97256.25;;;14.18;63.49
73171;BME280;61381;50.118;19.962;2023-10-19T09:28:24;97268.84;;;14.26;60.48
73171;BME280;61381;50.118;19.962;2023-10-19T09:33:27;97254.41;;;14.47;59.81
73171;BME280;61381;50.118;19.962;2023-10-19T09:38:28;97241.47;;;13.87;62.23
73171;BME280;61381;50.118;19.962;2023-10-19T09:43:33;97242.47;;;13.70;63.92
73171;BME280;61381;50.118;19.962;2023-10-19T09:48:36;97220.84;;;13.79;63.61
73171;BME280;61381;50.118;19.962;2023-10-19T09:53:39;97214.91;;;13.27;64.91
73171;BME280;61381;50.118;19.962;2023-10-19T09:58:49;97215.78;;;13.89;61.99
73171;BME280;61381;50.118;19.962;2023-10-19T10:03:52;97201.06;;;13.99;62.02
73171;BME280;61381;50.118;19.962;2023-10-19T10:08:54;97210.28;;;14.11;60.34
73171;BME280;61381;50.118;19.962;2023-10-19T10:13:57;97192.16;;;14.23;61.78
73171;BME280;61381;50.118;19.962;2023-10-19T10:18:59;97189.88;;;14.38;61.07
73171;BME280;61381;50.118;19.962;2023-10-19T10:24:03;97178.66;;;14.36;62.25
73171;BME280;61381;50.118;19.962;2023-10-19T10:29:10;97154.22;;;14.69;63.43
73171;BME280;61381;50.118;19.962;2023-10-19T10:34:16;97152.56;;;14.12;66.24
73171;BME280;61381;50.118;19.962;2023-10-19T10:39:33;97138.78;;;14.13;70.00
73171;BME280;61381;50.118;19.962;2023-10-19T10:44:40;97134.31;;;14.33;69.78
73171;BME280;61381;50.118;19.962;2023-10-19T10:49:51;97133.63;;;14.49;70.10
73171;BME280;61381;50.118;19.962;2023-10-19T10:54:52;97118.66;;;13.70;75.12
73171;BME280;61381;50.118;19.962;2023-10-19T11:00:03;97104.13;;;13.59;73.95
73171;BME280;61381;50.118;19.962;2023-10-19T11:05:04;97095.72;;;13.60;78.42
73171;BME280;61381;50.118;19.962;2023-10-19T11:10:07;97080.41;;;14.17;76.95
73171;BME280;61381;50.118;19.962;2023-10-19T11:15:09;97074.88;;;14.26;78.15
73171;BME280;61381;50.118;19.962;2023-10-19T11:20:20;97067.94;;;13.97;75.59
73171;BME280;61381;50.118;19.962;2023-10-19T11:25:23;97056.97;;;14.62;76.53
73171;BME280;61381;50.118;19.962;2023-10-19T11:30:28;97051.56;;;14.46;76.42
73171;BME280;61381;50.118;19.962;2023-10-19T11:35:30;97044.13;;;13.99;76.91
73171;BME280;61381;50.118;19.962;2023-10-19T11:40:31;97039.00;;;14.38;77.12
73171;BME280;61381;50.118;19.962;2023-10-19T11:45:33;97034.38;;;14.22;76.82
73171;BME280;61381;50.118;19.962;2023-10-19T11:50:34;97019.50;;;14.13;80.37
73171;BME280;61381;50.118;19.962;2023-10-19T11:55:35;97009.25;;;14.18;81.16
73171;BME280;61381;50.118;19.962;2023-10-19T12:00:37;97012.56;;;14.88;80.58
73171;BME280;61381;50.118;19.962;2023-10-19T12:05:38;97002.97;;;13.98;82.21
73171;BME280;61381;50.118;19.962;2023-10-19T12:10:39;96982.91;;;14.12;82.83
73171;BME280;61381;50.118;19.962;2023-10-19T12:15:41;96962.63;;;13.86;85.27
73171;BME280;61381;50.118;19.962;2023-10-19T12:20:42;96962.78;;;14.21;85.49
73171;BME280;61381;50.118;19.962;2023-10-19T12:25:43;96981.53;;;14.18;86.66
73171;BME280;61381;50.118;19.962;2023-10-19T12:30:46;96958.06;;;14.02;86.90
73171;BME280;61381;50.118;19.962;2023-10-19T12:35:47;96955.00;;;13.88;88.64
73171;BME280;61381;50.118;19.962;2023-10-19T12:40:49;96950.28;;;14.45;87.78
73171;BME280;61381;50.118;19.962;2023-10-19T12:45:51;96947.63;;;14.61;88.72
73171;BME280;61381;50.118;19.962;2023-10-19T12:50:52;96949.59;;;14.48;88.98
73171;BME280;61381;50.118;19.962;2023-10-19T12:55:53;96958.09;;;14.34;89.73
73171;BME280;61381;50.118;19.962;2023-10-19T13:00:55;96952.88;;;14.57;90.02
73171;BME280;61381;50.118;19.962;2023-10-19T13:05:56;96954.19;;;14.95;89.03
73171;BME280;61381;50.118;19.962;2023-10-19T13:10:57;96947.31;;;14.82;88.80
73171;BME280;61381;50.118;19.962;2023-10-19T13:15:59;96946.00;;;14.28;89.81
73171;BME280;61381;50.118;19.962;2023-10-19T13:21:00;96938.44;;;14.18;91.61
73171;BME280;61381;50.118;19.962;2023-10-19T13:26:02;96932.19;;;14.14;91.14
73171;BME280;61381;50.118;19.962;2023-10-19T13:31:04;96927.25;;;14.16;91.67
73171;BME280;61381;50.118;19.962;2023-10-19T13:36:06;96924.69;;;13.91;93.68
73171;BME280;61381;50.118;19.962;2023-10-19T13:41:07;96908.31;;;14.12;94.44
73171;BME280;61381;50.118;19.962;2023-10-19T13:46:09;96901.63;;;14.06;95.23
73171;BME280;61381;50.118;19.962;2023-10-19T13:51:10;96899.09;;;14.13;94.47
73171;BME280;61381;50.118;19.962;2023-10-19T13:56:11;96897.00;;;14.06;95.67
73171;BME280;61381;50.118;19.962;2023-10-19T14:01:15;96886.16;;;14.19;94.76
73171;BME280;61381;50.118;19.962;2023-10-19T14:06:15;96883.03;;;14.17;95.11
73171;BME280;61381;50.118;19.962;2023-10-19T14:11:18;96878.75;;;14.32;96.27
73171;BME280;61381;50.118;19.962;2023-10-19T14:16:22;96869.13;;;13.83;97.25
73171;BME280;61381;50.118;19.962;2023-10-19T14:21:23;96872.72;;;13.59;99.26
73171;BME280;61381;50.118;19.962;2023-10-19T14:26:24;96861.03;;;13.83;99.28
73171;BME280;61381;50.118;19.962;2023-10-19T14:31:26;96851.75;;;13.52;100.00
73171;BME280;61381;50.118;19.962;2023-10-19T14:36:27;96854.38;;;13.64;99.98
73171;BME280;61381;50.118;19.962;2023-10-19T14:41:28;96838.50;;;13.59;100.00
73171;BME280;61381;50.118;19.962;2023-10-19T14:46:30;96844.00;;;13.79;99.37
73171;BME280;61381;50.118;19.962;2023-10-19T14:51:31;96836.97;;;13.74;98.90
73171;BME280;61381;50.118;19.962;2023-10-19T14:56:32;96847.25;;;13.84;98.13
73171;BME280;61381;50.118;19.962;2023-10-19T15:01:34;96828.38;;;14.00;97.61
73171;BME280;61381;50.118;19.962;2023-10-19T15:06:35;96828.78;;;13.70;99.30
73171;BME280;61381;50.118;19.962;2023-10-19T15:11:35;96803.03;;;13.69;100.00
73171;BME280;61381;50.118;19.962;2023-10-19T15:16:38;96780.53;;;13.78;99.77
73171;BME280;61381;50.118;19.962;2023-10-19T15:21:38;96777.66;;;13.70;100.00
73171;BME280;61381;50.118;19.962;2023-10-19T15:26:40;96789.13;;;13.99;98.96
73171;BME280;61381;50.118;19.962;2023-10-19T15:31:42;96794.69;;;14.06;98.39
73171;BME280;61381;50.118;19.962;2023-10-19T15:37:06;96795.47;;;14.42;95.97
73171;BME280;61381;50.118;19.962;2023-10-19T15:42:47;96805.28;;;14.51;96.38
73171;BME280;61381;50.118;19.962;2023-10-19T15:47:51;96784.91;;;14.34;97.19
73171;BME280;61381;50.118;19.962;2023-10-19T15:53:13;96804.47;;;14.31;98.12
73171;BME280;61381;50.118;19.962;2023-10-19T15:58:24;96798.16;;;14.07;99.52
73171;BME280;61381;50.118;19.962;2023-10-19T16:15:42;96792.28;;;14.37;97.88
73171;BME280;61381;50.118;19.962;2023-10-19T16:20:50;96793.50;;;14.39;97.83
73171;BME280;61381;50.118;19.962;2023-10-19T16:26:02;96785.31;;;14.00;99.67
73171;BME280;61381;50.118;19.962;2023-10-19T16:31:06;96800.91;;;14.26;98.74
73171;BME280;61381;50.118;19.962;2023-10-19T16:36:07;96792.09;;;13.94;100.00
73171;BME280;61381;50.118;19.962;2023-10-19T16:41:08;96795.81;;;13.89;100.00
73171;BME280;61381;50.118;19.962;2023-10-19T16:46:10;96782.97;;;13.83;100.00
73171;BME280;61381;50.118;19.962;2023-10-19T16:51:11;96781.84;;;13.84;100.00
73171;BME280;61381;50.118;19.962;2023-10-19T16:56:12;96777.41;;;13.91;100.00
73171;BME280;61381;50.118;19.962;2023-10-19T17:01:15;96780.09;;;13.60;100.00
73171;BME280;61381;50.118;19.962;2023-10-19T17:06:16;96780.09;;;13.76;100.00
73171;BME280;61381;50.118;19.962;2023-10-19T17:11:17;96765.44;;;13.57;100.00
73171;BME280;61381;50.118;19.962;2023-10-19T17:16:19;96764.72;;;13.44;100.00
73171;BME280;61381;50.118;19.962;2023-10-19T17:21:20;96760.75;;;13.54;100.00
73171;BME280;61381;50.118;19.962;2023-10-19T17:26:21;96766.28;;;13.45;100.00
73171;BME280;61381;50.118;19.962;2023-10-19T17:31:24;96774.41;;;13.33;100.00
73171;BME280;61381;50.118;19.962;2023-10-19T17:36:26;96769.53;;;13.83;100.00
73171;BME280;61381;50.118;19.962;2023-10-19T17:41:27;96766.81;;;13.51;100.00
73171;BME280;61381;50.118;19.962;2023-10-19T17:46:29;96761.44;;;13.67;100.00
73171;BME280;61381;50.118;19.962;2023-10-19T17:51:30;96750.16;;;13.77;100.00
73171;BME280;61381;50.118;19.962;2023-10-19T17:56:30;96750.59;;;13.95;100.00
73171;BME280;61381;50.118;19.962;2023-10-19T18:01:33;96742.66;;;14.02;100.00
73171;BME280;61381;50.118;19.962;2023-10-19T18:06:34;96745.94;;;14.12;100.00
73171;BME280;61381;50.118;19.962;2023-10-19T18:11:35;96738.66;;;13.96;100.00
73171;BME280;61381;50.118;19.962;2023-10-19T18:16:37;96731.50;;;13.52;100.00
73171;BME280;61381;50.118;19.962;2023-10-19T18:21:38;96733.22;;;13.45;100.00
73171;BME280;61381;50.118;19.962;2023-10-19T18:26:39;96738.50;;;13.73;100.00
73171;BME280;61381;50.118;19.962;2023-10-19T18:31:42;96737.50;;;13.62;100.00
73171;BME280;61381;50.118;19.962;2023-10-19T18:36:42;96734.94;;;13.69;100.00
73171;BME280;61381;50.118;19.962;2023-10-19T18:41:43;96721.78;;;13.64;100.00
73171;BME280;61381;50.118;19.962;2023-10-19T18:46:46;96730.09;;;13.43;100.00
73171;BME280;61381;50.118;19.962;2023-10-19T18:51:47;96721.41;;;13.81;100.00
73171;BME280;61381;50.118;19.962;2023-10-19T18:56:47;96726.88;;;13.69;100.00
73171;BME280;61381;50.118;19.962;2023-10-19T19:01:50;96727.53;;;13.98;100.00
73171;BME280;61381;50.118;19.962;2023-10-19T19:06:51;96735.22;;;13.64;100.00
73171;BME280;61381;50.118;19.962;2023-10-19T19:11:51;96735.47;;;13.43;100.00
73171;BME280;61381;50.118;19.962;2023-10-19T19:16:54;96732.19;;;13.65;100.00
73171;BME280;61381;50.118;19.962;2023-10-19T19:21:55;96721.75;;;13.80;100.00
73171;BME280;61381;50.118;19.962;2023-10-19T19:26:56;96716.91;;;13.53;100.00
73171;BME280;61381;50.118;19.962;2023-10-19T19:31:58;96709.38;;;13.43;100.00
73171;BME280;61381;50.118;19.962;2023-10-19T19:36:59;96706.81;;;13.18;100.00
73171;BME280;61381;50.118;19.962;2023-10-19T19:42:00;96716.13;;;13.53;100.00
73171;BME280;61381;50.118;19.962;2023-10-19T19:47:02;96710.41;;;13.54;100.00
73171;BME280;61381;50.118;19.962;2023-10-19T19:52:03;96697.09;;;13.30;100.00
73171;BME280;61381;50.118;19.962;2023-10-19T19:57:04;96697.22;;;13.49;100.00
73171;BME280;61381;50.118;19.962;2023-10-19T20:02:06;96690.00;;;13.37;100.00
73171;BME280;61381;50.118;19.962;2023-10-19T20:07:07;96683.47;;;13.23;100.00
73171;BME280;61381;50.118;19.962;2023-10-19T20:12:08;96689.25;;;13.37;100.00
73171;BME280;61381;50.118;19.962;2023-10-19T20:17:10;96681.94;;;13.69;100.00
73171;BME280;61381;50.118;19.962;2023-10-19T20:22:11;96679.88;;;13.98;100.00
73171;BME280;61381;50.118;19.962;2023-10-19T20:27:11;96683.16;;;14.07;100.00
73171;BME280;61381;50.118;19.962;2023-10-19T20:32:14;96670.34;;;14.20;100.00
73171;BME280;61381;50.118;19.962;2023-10-19T20:37:15;96663.59;;;14.11;100.00
73171;BME280;61381;50.118;19.962;2023-10-19T20:42:15;96662.31;;;14.24;99.79
73171;BME280;61381;50.118;19.962;2023-10-19T20:47:18;96658.16;;;14.26;100.00
73171;BME280;61381;50.118;19.962;2023-10-19T20:52:18;96655.53;;;14.50;99.22
73171;BME280;61381;50.118;19.962;2023-10-19T20:57:19;96649.94;;;14.58;98.31
73171;BME280;61381;50.118;19.962;2023-10-19T21:02:22;96639.69;;;14.64;98.00
73171;BME280;61381;50.118;19.962;2023-10-19T21:07:22;96644.28;;;14.63;97.44
73171;BME280;61381;50.118;19.962;2023-10-19T21:12:23;96635.13;;;14.68;97.38
73171;BME280;61381;50.118;19.962;2023-10-19T21:17:26;96629.84;;;14.56;97.50
73171;BME280;61381;50.118;19.962;2023-10-19T21:22:26;96617.53;;;14.35;98.49
73171;BME280;61381;50.118;19.962;2023-10-19T21:27:27;96603.63;;;13.94;100.00
73171;BME280;61381;50.118;19.962;2023-10-19T21:32:29;96595.28;;;13.99;100.00
73171;BME280;61381;50.118;19.962;2023-10-19T21:37:31;96603.94;;;14.28;99.90
73171;BME280;61381;50.118;19.962;2023-10-19T21:42:32;96608.25;;;14.33;99.38
73171;BME280;61381;50.118;19.962;2023-10-19T21:47:35;96615.69;;;14.39;98.97
73171;BME280;61381;50.118;19.962;2023-10-19T21:52:35;96591.56;;;14.47;98.57
73171;BME280;61381;50.118;19.962;2023-10-19T21:57:36;96571.75;;;14.16;99.79
73171;BME280;61381;50.118;19.962;2023-10-19T22:02:39;96557.50;;;13.76;100.00
73171;BME280;61381;50.118;19.962;2023-10-19T22:07:40;96573.81;;;14.22;99.93
73171;BME280;61381;50.118;19.962;2023-10-19T22:12:41;96563.44;;;14.44;99.10
73171;BME280;61381;50.118;19.962;2023-10-19T22:17:44;96549.66;;;14.06;100.00
73171;BME280;61381;50.118;19.962;2023-10-19T22:22:45;96534.22;;;14.03;100.00
73171;BME280;61381;50.118;19.962;2023-10-19T22:27:46;96514.00;;;14.13;100.00
73171;BME280;61381;50.118;19.962;2023-10-19T22:32:49;96495.03;;;13.47;100.00
73171;BME280;61381;50.118;19.962;2023-10-19T22:37:50;96499.78;;;13.54;100.00
73171;BME280;61381;50.118;19.962;2023-10-19T22:42:51;96528.91;;;13.32;100.00
73171;BME280;61381;50.118;19.962;2023-10-19T22:47:53;96534.09;;;13.41;100.00
73171;BME280;61381;50.118;19.962;2023-10-19T22:52:54;96542.69;;;13.15;100.00
73171;BME280;61381;50.118;19.962;2023-10-19T22:57:55;96546.06;;;13.44;100.00
73171;BME280;61381;50.118;19.962;2023-10-19T23:02:57;96538.72;;;13.09;100.00
73171;BME280;61381;50.118;19.962;2023-10-19T23:07:58;96536.38;;;13.07;100.00
73171;BME280;61381;50.118;19.962;2023-10-19T23:12:59;96522.00;;;13.51;100.00
73171;BME280;61381;50.118;19.962;2023-10-19T23:18:02;96517.41;;;13.51;100.00
73171;BME280;61381;50.118;19.962;2023-10-19T23:23:03;96509.56;;;13.62;100.00
73171;BME280;61381;50.118;19.962;2023-10-19T23:28:05;96492.28;;;13.28;100.00
73171;BME280;61381;50.118;19.962;2023-10-19T23:33:07;96487.38;;;13.88;100.00
73171;BME280;61381;50.118;19.962;2023-10-19T23:38:08;96490.22;;;13.96;100.00
73171;BME280;61381;50.118;19.962;2023-10-19T23:43:08;96502.75;;;13.88;100.00
73171;BME280;61381;50.118;19.962;2023-10-19T23:48:11;96494.19;;;14.02;100.00
73171;BME280;61381;50.118;19.962;2023-10-19T23:53:12;96482.50;;;13.94;100.00
73171;BME280;61381;50.118;19.962;2023-10-19T23:58:13;96481.84;;;13.81;100.00
